sensor_id;sensor_type;location;lat;lon;timestamp;pressure;altitude;pressure_sealevel;temperature;humidity
68889;BME280;55930;47.412;8.790;2024-03-08T00:01:04;94469.09;;;-0.17;100.00
68889;BME280;55930;47.412;8.790;2024-03-08T00:04:24;94456.91;;;-0.27;100.00
68889;BME280;55930;47.412;8.790;2024-03-08T00:07:45;94453.66;;;-0.35;100.00
68889;BME280;55930;47.412;8.790;2024-03-08T00:11:08;94459.16;;;-0.29;100.00
68889;BME280;55930;47.412;8.790;2024-03-08T00:14:29;94452.38;;;-0.23;100.00
68889;BME280;55930;47.412;8.790;2024-03-08T00:17:53;94456.00;;;-0.14;100.00
68889;BME280;55930;47.412;8.790;2024-03-08T00:21:14;94452.06;;;-0.25;100.00
68889;BME280;55930;47.412;8.790;2024-03-08T00:24:35;94451.13;;;-0.42;100.00
68889;BME280;55930;47.412;8.790;2024-03-08T00:27:58;94447.78;;;-0.43;100.00
68889;BME280;55930;47.412;8.790;2024-03-08T00:31:22;94444.53;;;-0.50;100.00
68889;BME280;55930;47.412;8.790;2024-03-08T00:34:42;94436.66;;;-0.47;100.00
68889;BME280;55930;47.412;8.790;2024-03-08T00:38:03;94442.59;;;-0.46;100.00
68889;BME280;55930;47.412;8.790;2024-03-08T00:41:23;94433.63;;;-0.42;100.00
68889;BME280;55930;47.412;8.790;2024-03-08T00:44:47;94434.31;;;-0.38;100.00
68889;BME280;55930;47.412;8.790;2024-03-08T00:48:08;94427.50;;;-0.58;100.00
68889;BME280;55930;47.412;8.790;2024-03-08T00:51:31;94434.22;;;-0.61;100.00
68889;BME280;55930;47.412;8.790;2024-03-08T00:54:52;94428.28;;;-0.61;100.00
68889;BME280;55930;47.412;8.790;2024-03-08T00:58:13;94432.34;;;-0.60;100.00
68889;BME280;55930;47.412;8.790;2024-03-08T01:01:33;94417.47;;;-0.60;100.00
68889;BME280;55930;47.412;8.790;2024-03-08T01:04:54;94419.31;;;-0.57;100.00
68889;BME280;55930;47.412;8.790;2024-03-08T01:08:16;94408.22;;;-0.64;100.00
68889;BME280;55930;47.412;8.790;2024-03-08T01:11:37;94415.88;;;-0.50;100.00
68889;BME280;55930;47.412;8.790;2024-03-08T01:14:58;94398.66;;;-0.41;100.00
68889;BME280;55930;47.412;8.790;2024-03-08T01:18:18;94406.41;;;-0.37;100.00
68889;BME280;55930;47.412;8.790;2024-03-08T01:21:39;94401.09;;;-0.30;100.00
68889;BME280;55930;47.412;8.790;2024-03-08T01:25:00;94402.53;;;-0.25;100.00
68889;BME280;55930;47.412;8.790;2024-03-08T01:28:20;94402.06;;;-0.17;100.00
68889;BME280;55930;47.412;8.790;2024-03-08T01:31:41;94402.63;;;-0.06;100.00
68889;BME280;55930;47.412;8.790;2024-03-08T01:35:04;94392.22;;;-0.06;100.00
68889;BME280;55930;47.412;8.790;2024-03-08T01:38:24;94391.72;;;0.03;100.00
68889;BME280;55930;47.412;8.790;2024-03-08T01:41:45;94386.84;;;0.05;100.00
68889;BME280;55930;47.412;8.790;2024-03-08T01:45:06;94382.72;;;0.08;100.00
68889;BME280;55930;47.412;8.790;2024-03-08T01:48:27;94381.56;;;0.09;100.00
68889;BME280;55930;47.412;8.790;2024-03-08T01:51:49;94376.22;;;0.19;100.00
68889;BME280;55930;47.412;8.790;2024-03-08T01:55:10;94383.56;;;0.24;100.00
68889;BME280;55930;47.412;8.790;2024-03-08T01:58:30;94376.50;;;0.25;100.00
68889;BME280;55930;47.412;8.790;2024-03-08T02:01:50;94367.94;;;0.24;100.00
68889;BME280;55930;47.412;8.790;2024-03-08T02:05:12;94368.13;;;0.37;100.00
68889;BME280;55930;47.412;8.790;2024-03-08T02:08:33;94365.41;;;0.44;100.00
68889;BME280;55930;47.412;8.790;2024-03-08T02:11:55;94362.44;;;0.42;100.00
68889;BME280;55930;47.412;8.790;2024-03-08T02:15:16;94364.19;;;0.49;100.00
68889;BME280;55930;47.412;8.790;2024-03-08T02:18:37;94353.75;;;0.49;100.00
68889;BME280;55930;47.412;8.790;2024-03-08T02:22:01;94356.03;;;0.47;100.00
68889;BME280;55930;47.412;8.790;2024-03-08T02:25:24;94354.91;;;0.48;100.00
68889;BME280;55930;47.412;8.790;2024-03-08T02:28:45;94338.91;;;0.46;100.00
68889;BME280;55930;47.412;8.790;2024-03-08T02:32:06;94346.00;;;0.45;100.00
68889;BME280;55930;47.412;8.790;2024-03-08T02:35:26;94336.56;;;0.51;100.00
68889;BME280;55930;47.412;8.790;2024-03-08T02:38:46;94340.72;;;0.49;100.00
68889;BME280;55930;47.412;8.790;2024-03-08T02:42:07;94337.53;;;0.61;100.00
68889;BME280;55930;47.412;8.790;2024-03-08T02:45:31;94328.47;;;0.46;100.00
68889;BME280;55930;47.412;8.790;2024-03-08T02:48:51;94327.56;;;0.56;100.00
68889;BME280;55930;47.412;8.790;2024-03-08T02:52:16;94329.72;;;0.61;100.00
68889;BME280;55930;47.412;8.790;2024-03-08T02:55:37;94322.63;;;0.61;100.00
68889;BME280;55930;47.412;8.790;2024-03-08T02:58:57;94318.56;;;0.57;100.00
68889;BME280;55930;47.412;8.790;2024-03-08T03:02:18;94307.13;;;0.51;100.00
68889;BME280;55930;47.412;8.790;2024-03-08T03:05:38;94315.88;;;0.64;100.00
68889;BME280;55930;47.412;8.790;2024-03-08T03:09:01;94310.03;;;0.76;100.00
68889;BME280;55930;47.412;8.790;2024-03-08T03:12:22;94312.69;;;0.72;100.00
68889;BME280;55930;47.412;8.790;2024-03-08T03:15:42;94309.09;;;0.66;100.00
68889;BME280;55930;47.412;8.790;2024-03-08T03:19:03;94294.44;;;0.72;100.00
68889;BME280;55930;47.412;8.790;2024-03-08T03:22:25;94298.66;;;0.66;100.00
68889;BME280;55930;47.412;8.790;2024-03-08T03:25:46;94293.25;;;0.77;100.00
68889;BME280;55930;47.412;8.790;2024-03-08T03:29:07;94286.72;;;0.65;100.00
68889;BME280;55930;47.412;8.790;2024-03-08T03:32:29;94286.72;;;0.65;100.00
68889;BME280;55930;47.412;8.790;2024-03-08T03:35:49;94286.88;;;0.58;100.00
68889;BME280;55930;47.412;8.790;2024-03-08T03:39:11;94283.91;;;0.56;100.00
68889;BME280;55930;47.412;8.790;2024-03-08T03:42:40;94285.69;;;0.63;100.00
68889;BME280;55930;47.412;8.790;2024-03-08T03:46:04;94276.44;;;0.58;100.00
68889;BME280;55930;47.412;8.790;2024-03-08T03:49:25;94282.13;;;0.73;100.00
68889;BME280;55930;47.412;8.790;2024-03-08T03:52:46;94273.28;;;0.67;100.00
68889;BME280;55930;47.412;8.790;2024-03-08T03:56:07;94282.81;;;0.77;100.00
68889;BME280;55930;47.412;8.790;2024-03-08T03:59:27;94289.09;;;0.60;100.00
68889;BME280;55930;47.412;8.790;2024-03-08T04:02:50;94283.47;;;0.61;100.00
68889;BME280;55930;47.412;8.790;2024-03-08T04:06:11;94285.56;;;0.70;100.00
68889;BME280;55930;47.412;8.790;2024-03-08T04:09:31;94280.31;;;0.50;100.00
68889;BME280;55930;47.412;8.790;2024-03-08T04:12:52;94267.81;;;0.61;100.00
68889;BME280;55930;47.412;8.790;2024-03-08T04:16:12;94267.88;;;0.58;100.00
68889;BME280;55930;47.412;8.790;2024-03-08T04:19:33;94270.34;;;0.65;100.00
68889;BME280;55930;47.412;8.790;2024-03-08T04:22:54;94267.19;;;0.54;100.00
68889;BME280;55930;47.412;8.790;2024-03-08T04:26:17;94272.81;;;0.52;100.00
68889;BME280;55930;47.412;8.790;2024-03-08T04:29:38;94263.13;;;0.53;100.00
68889;BME280;55930;47.412;8.790;2024-03-08T04:32:58;94262.19;;;0.63;100.00
68889;BME280;55930;47.412;8.790;2024-03-08T04:36:19;94257.75;;;0.60;100.00
68889;BME280;55930;47.412;8.790;2024-03-08T04:39:42;94257.63;;;0.67;100.00
68889;BME280;55930;47.412;8.790;2024-03-08T04:43:02;94250.28;;;0.62;100.00
68889;BME280;55930;47.412;8.790;2024-03-08T04:46:23;94252.88;;;0.62;100.00
68889;BME280;55930;47.412;8.790;2024-03-08T04:49:43;94253.41;;;0.73;100.00
68889;BME280;55930;47.412;8.790;2024-03-08T04:53:04;94254.03;;;0.61;100.00
68889;BME280;55930;47.412;8.790;2024-03-08T04:56:28;94246.00;;;0.52;100.00
68889;BME280;55930;47.412;8.790;2024-03-08T04:59:48;94247.28;;;0.63;100.00
68889;BME280;55930;47.412;8.790;2024-03-08T05:03:08;94248.53;;;0.55;100.00
68889;BME280;55930;47.412;8.790;2024-03-08T05:06:31;94246.38;;;0.30;100.00
68889;BME280;55930;47.412;8.790;2024-03-08T05:09:55;94251.72;;;0.43;100.00
68889;BME280;55930;47.412;8.790;2024-03-08T05:13:15;94242.88;;;0.17;100.00
68889;BME280;55930;47.412;8.790;2024-03-08T05:16:36;94242.88;;;0.17;100.00
68889;BME280;55930;47.412;8.790;2024-03-08T05:19:56;94239.69;;;0.49;100.00
68889;BME280;55930;47.412;8.790;2024-03-08T05:23:18;94238.91;;;0.52;100.00
68889;BME280;55930;47.412;8.790;2024-03-08T05:26:39;94247.66;;;0.42;100.00
68889;BME280;55930;47.412;8.790;2024-03-08T05:30:00;94244.22;;;0.25;100.00
68889;BME280;55930;47.412;8.790;2024-03-08T05:33:20;94237.28;;;0.38;100.00
68889;BME280;55930;47.412;8.790;2024-03-08T05:36:41;94230.72;;;0.30;100.00
68889;BME280;55930;47.412;8.790;2024-03-08T05:40:05;94232.72;;;0.43;100.00
68889;BME280;55930;47.412;8.790;2024-03-08T05:43:31;94232.13;;;0.35;100.00
68889;BME280;55930;47.412;8.790;2024-03-08T05:46:52;94232.19;;;0.31;100.00
68889;BME280;55930;47.412;8.790;2024-03-08T05:50:12;94241.28;;;0.43;100.00
68889;BME280;55930;47.412;8.790;2024-03-08T05:53:32;94231.47;;;0.31;100.00
68889;BME280;55930;47.412;8.790;2024-03-08T05:56:55;94230.03;;;0.26;100.00
68889;BME280;55930;47.412;8.790;2024-03-08T06:00:19;94229.31;;;0.26;100.00
68889;BME280;55930;47.412;8.790;2024-03-08T06:03:39;94237.34;;;0.35;100.00
68889;BME280;55930;47.412;8.790;2024-03-08T06:07:05;94235.13;;;0.33;100.00
68889;BME280;55930;47.412;8.790;2024-03-08T06:10:25;94236.47;;;0.42;100.00
68889;BME280;55930;47.412;8.790;2024-03-08T06:13:46;94229.13;;;0.36;100.00
68889;BME280;55930;47.412;8.790;2024-03-08T06:17:06;94240.75;;;0.52;100.00
68889;BME280;55930;47.412;8.790;2024-03-08T06:20:27;94236.34;;;0.49;100.00
68889;BME280;55930;47.412;8.790;2024-03-08T06:23:50;94238.69;;;0.43;100.00
68889;BME280;55930;47.412;8.790;2024-03-08T06:27:14;94230.84;;;0.43;100.00
68889;BME280;55930;47.412;8.790;2024-03-08T06:30:35;94237.03;;;0.53;100.00
68889;BME280;55930;47.412;8.790;2024-03-08T06:33:55;94241.22;;;0.27;100.00
68889;BME280;55930;47.412;8.790;2024-03-08T06:37:15;94232.81;;;0.59;100.00
68889;BME280;55930;47.412;8.790;2024-03-08T06:40:36;94231.13;;;0.49;100.00
68889;BME280;55930;47.412;8.790;2024-03-08T06:44:01;94232.34;;;0.64;100.00
68889;BME280;55930;47.412;8.790;2024-03-08T06:47:21;94227.94;;;0.61;100.00
68889;BME280;55930;47.412;8.790;2024-03-08T06:50:46;94232.22;;;0.71;100.00
68889;BME280;55930;47.412;8.790;2024-03-08T06:54:09;94238.56;;;0.70;100.00
68889;BME280;55930;47.412;8.790;2024-03-08T06:57:29;94227.25;;;0.76;100.00
68889;BME280;55930;47.412;8.790;2024-03-08T07:00:50;94225.53;;;0.70;100.00
68889;BME280;55930;47.412;8.790;2024-03-08T07:04:18;94223.84;;;0.80;100.00
68889;BME280;55930;47.412;8.790;2024-03-08T07:07:40;94225.22;;;0.84;100.00
68889;BME280;55930;47.412;8.790;2024-03-08T07:11:01;94224.00;;;1.08;100.00
68889;BME280;55930;47.412;8.790;2024-03-08T07:14:22;94217.59;;;0.93;100.00
68889;BME280;55930;47.412;8.790;2024-03-08T07:17:42;94217.13;;;1.14;100.00
68889;BME280;55930;47.412;8.790;2024-03-08T07:21:04;94214.22;;;1.29;100.00
68889;BME280;55930;47.412;8.790;2024-03-08T07:24:27;94217.34;;;1.40;100.00
68889;BME280;55930;47.412;8.790;2024-03-08T07:28:13;94208.56;;;1.14;100.00
68889;BME280;55930;47.412;8.790;2024-03-08T07:31:35;94211.06;;;1.53;100.00
68889;BME280;55930;47.412;8.790;2024-03-08T07:35:10;94213.19;;;1.59;100.00
68889;BME280;55930;47.412;8.790;2024-03-08T07:38:31;94203.03;;;1.77;100.00
68889;BME280;55930;47.412;8.790;2024-03-08T07:41:51;94201.47;;;1.96;100.00
68889;BME280;55930;47.412;8.790;2024-03-08T07:45:12;94197.78;;;2.09;100.00
68889;BME280;55930;47.412;8.790;2024-03-08T07:48:35;94192.69;;;2.18;100.00
68889;BME280;55930;47.412;8.790;2024-03-08T07:51:56;94184.72;;;2.38;100.00
68889;BME280;55930;47.412;8.790;2024-03-08T07:55:18;94181.44;;;2.34;100.00
68889;BME280;55930;47.412;8.790;2024-03-08T07:58:38;94168.47;;;2.30;100.00
68889;BME280;55930;47.412;8.790;2024-03-08T08:02:00;94173.09;;;2.39;100.00
68889;BME280;55930;47.412;8.790;2024-03-08T08:05:21;94168.53;;;2.27;100.00
68889;BME280;55930;47.412;8.790;2024-03-08T08:08:42;94166.25;;;2.71;100.00
68889;BME280;55930;47.412;8.790;2024-03-08T08:12:03;94154.81;;;2.64;100.00
68889;BME280;55930;47.412;8.790;2024-03-08T08:15:24;94153.31;;;2.38;100.00
68889;BME280;55930;47.412;8.790;2024-03-08T08:18:44;94158.22;;;2.49;100.00
68889;BME280;55930;47.412;8.790;2024-03-08T08:22:06;94157.94;;;2.47;100.00
68889;BME280;55930;47.412;8.790;2024-03-08T08:25:28;94156.94;;;2.41;100.00
68889;BME280;55930;47.412;8.790;2024-03-08T08:28:49;94148.53;;;2.62;100.00
68889;BME280;55930;47.412;8.790;2024-03-08T08:32:12;94145.63;;;2.85;100.00
68889;BME280;55930;47.412;8.790;2024-03-08T08:35:32;94145.41;;;3.05;100.00
68889;BME280;55930;47.412;8.790;2024-03-08T08:38:53;94127.13;;;2.09;100.00
68889;BME280;55930;47.412;8.790;2024-03-08T08:42:14;94136.53;;;3.02;100.00
68889;BME280;55930;47.412;8.790;2024-03-08T08:45:34;94128.53;;;2.81;100.00
68889;BME280;55930;47.412;8.790;2024-03-08T08:48:55;94136.00;;;2.41;100.00
68889;BME280;55930;47.412;8.790;2024-03-08T08:52:16;94123.94;;;2.97;100.00
68889;BME280;55930;47.412;8.790;2024-03-08T08:55:36;94126.13;;;3.12;100.00
68889;BME280;55930;47.412;8.790;2024-03-08T08:58:57;94113.03;;;2.61;100.00
68889;BME280;55930;47.412;8.790;2024-03-08T09:02:18;94122.25;;;2.78;100.00
68889;BME280;55930;47.412;8.790;2024-03-08T09:05:41;94119.22;;;3.18;100.00
68889;BME280;55930;47.412;8.790;2024-03-08T09:09:02;94120.47;;;3.13;100.00
68889;BME280;55930;47.412;8.790;2024-03-08T09:12:24;94102.81;;;3.39;100.00
68889;BME280;55930;47.412;8.790;2024-03-08T09:15:44;94103.59;;;4.17;100.00
68889;BME280;55930;47.412;8.790;2024-03-08T09:19:07;94098.19;;;4.65;100.00
68889;BME280;55930;47.412;8.790;2024-03-08T09:22:30;94084.84;;;4.90;100.00
68889;BME280;55930;47.412;8.790;2024-03-08T09:25:51;94070.66;;;4.78;100.00
68889;BME280;55930;47.412;8.790;2024-03-08T09:29:11;94055.75;;;4.75;100.00
68889;BME280;55930;47.412;8.790;2024-03-08T09:32:32;94043.22;;;5.47;100.00
68889;BME280;55930;47.412;8.790;2024-03-08T09:35:52;94032.84;;;5.61;100.00
68889;BME280;55930;47.412;8.790;2024-03-08T09:39:13;94033.09;;;5.18;100.00
68889;BME280;55930;47.412;8.790;2024-03-08T09:42:42;94025.78;;;5.22;100.00
68889;BME280;55930;47.412;8.790;2024-03-08T09:46:06;94020.78;;;4.96;100.00
68889;BME280;55930;47.412;8.790;2024-03-08T09:49:27;94012.25;;;5.42;100.00
68889;BME280;55930;47.412;8.790;2024-03-08T09:52:49;94009.75;;;5.47;100.00
68889;BME280;55930;47.412;8.790;2024-03-08T09:56:10;93998.34;;;5.96;100.00
68889;BME280;55930;47.412;8.790;2024-03-08T09:59:32;93994.34;;;6.19;100.00
68889;BME280;55930;47.412;8.790;2024-03-08T10:02:52;94000.66;;;6.03;100.00
68889;BME280;55930;47.412;8.790;2024-03-08T10:06:13;93994.50;;;6.57;100.00
68889;BME280;55930;47.412;8.790;2024-03-08T10:09:34;93990.44;;;6.80;100.00
68889;BME280;55930;47.412;8.790;2024-03-08T10:12:55;93965.56;;;7.43;100.00
68889;BME280;55930;47.412;8.790;2024-03-08T10:16:18;93970.00;;;7.37;100.00
68889;BME280;55930;47.412;8.790;2024-03-08T10:19:38;93971.59;;;7.20;100.00
68889;BME280;55930;47.412;8.790;2024-03-08T10:23:03;93972.59;;;7.46;100.00
68889;BME280;55930;47.412;8.790;2024-03-08T10:26:25;93970.47;;;6.88;100.00
68889;BME280;55930;47.412;8.790;2024-03-08T10:29:48;93966.09;;;7.33;100.00
68889;BME280;55930;47.412;8.790;2024-03-08T10:33:10;93967.03;;;7.44;100.00
68889;BME280;55930;47.412;8.790;2024-03-08T10:36:31;93948.16;;;8.04;100.00
68889;BME280;55930;47.412;8.790;2024-03-08T10:40:17;93941.31;;;8.13;100.00
68889;BME280;55930;47.412;8.790;2024-03-08T10:47:26;93897.66;;;9.53;100.00
68889;BME280;55930;47.412;8.790;2024-03-08T10:50:49;93897.75;;;9.65;100.00
68889;BME280;55930;47.412;8.790;2024-03-08T10:54:14;93883.84;;;10.75;100.00
68889;BME280;55930;47.412;8.790;2024-03-08T10:57:36;93880.41;;;9.64;100.00
68889;BME280;55930;47.412;8.790;2024-03-08T11:00:58;93856.19;;;12.88;91.74
68889;BME280;55930;47.412;8.790;2024-03-08T11:04:18;93863.53;;;9.92;92.02
68889;BME280;55930;47.412;8.790;2024-03-08T11:07:42;93870.34;;;12.38;98.12
68889;BME280;55930;47.412;8.790;2024-03-08T11:11:03;93848.56;;;12.45;91.66
68889;BME280;55930;47.412;8.790;2024-03-08T11:14:44;93834.66;;;12.91;87.33
68889;BME280;55930;47.412;8.790;2024-03-08T11:18:08;93821.00;;;14.85;75.96
68889;BME280;55930;47.412;8.790;2024-03-08T11:21:31;93811.25;;;14.69;66.93
68889;BME280;55930;47.412;8.790;2024-03-08T11:24:53;93792.69;;;19.48;57.25
68889;BME280;55930;47.412;8.790;2024-03-08T11:28:20;93777.09;;;18.03;51.40
68889;BME280;55930;47.412;8.790;2024-03-08T11:31:40;93771.88;;;19.56;48.41
68889;BME280;55930;47.412;8.790;2024-03-08T11:35:02;93766.38;;;21.90;43.88
68889;BME280;55930;47.412;8.790;2024-03-08T11:38:26;93761.38;;;21.87;44.11
68889;BME280;55930;47.412;8.790;2024-03-08T11:41:48;93753.22;;;23.32;40.17
68889;BME280;55930;47.412;8.790;2024-03-08T11:45:09;93746.59;;;20.98;40.32
68889;BME280;55930;47.412;8.790;2024-03-08T11:48:31;93745.38;;;22.06;40.27
68889;BME280;55930;47.412;8.790;2024-03-08T11:51:52;93741.69;;;23.58;36.96
68889;BME280;55930;47.412;8.790;2024-03-08T11:55:13;93741.03;;;20.25;37.44
68889;BME280;55930;47.412;8.790;2024-03-08T11:58:34;93733.44;;;20.54;39.99
68889;BME280;55930;47.412;8.790;2024-03-08T12:02:05;93723.66;;;21.22;40.74
68889;BME280;55930;47.412;8.790;2024-03-08T12:05:25;93718.13;;;21.45;41.40
68889;BME280;55930;47.412;8.790;2024-03-08T12:08:46;93719.31;;;18.38;42.21
68889;BME280;55930;47.412;8.790;2024-03-08T12:12:09;93718.03;;;19.26;43.31
68889;BME280;55930;47.412;8.790;2024-03-08T12:15:33;93720.47;;;19.01;44.37
68889;BME280;55930;47.412;8.790;2024-03-08T12:18:54;93737.47;;;19.70;43.32
68889;BME280;55930;47.412;8.790;2024-03-08T12:22:15;93725.63;;;19.50;42.08
68889;BME280;55930;47.412;8.790;2024-03-08T12:25:35;93721.22;;;18.58;44.33
68889;BME280;55930;47.412;8.790;2024-03-08T12:29:17;93712.34;;;16.55;48.15
68889;BME280;55930;47.412;8.790;2024-03-08T12:32:40;93716.50;;;14.57;54.09
68889;BME280;55930;47.412;8.790;2024-03-08T12:36:03;93710.03;;;15.22;53.12
68889;BME280;55930;47.412;8.790;2024-03-08T12:39:27;93692.28;;;18.07;47.74
68889;BME280;55930;47.412;8.790;2024-03-08T12:42:47;93696.59;;;16.52;47.61
68889;BME280;55930;47.412;8.790;2024-03-08T12:46:07;93691.44;;;20.36;43.33
68889;BME280;55930;47.412;8.790;2024-03-08T12:49:29;93673.69;;;18.45;43.59
68889;BME280;55930;47.412;8.790;2024-03-08T12:52:51;93674.28;;;19.40;43.25
68889;BME280;55930;47.412;8.790;2024-03-08T12:56:29;93655.44;;;19.94;41.62
68889;BME280;55930;47.412;8.790;2024-03-08T12:59:49;93647.50;;;17.94;45.14
68889;BME280;55930;47.412;8.790;2024-03-08T13:03:10;93651.22;;;20.31;42.41
68889;BME280;55930;47.412;8.790;2024-03-08T13:06:32;93657.38;;;17.71;44.52
68889;BME280;55930;47.412;8.790;2024-03-08T13:09:53;93632.22;;;17.82;43.83
68889;BME280;55930;47.412;8.790;2024-03-08T13:13:17;93637.13;;;19.92;43.57
68889;BME280;55930;47.412;8.790;2024-03-08T13:16:37;93633.44;;;18.09;44.04
68889;BME280;55930;47.412;8.790;2024-03-08T13:20:00;93629.38;;;18.67;44.89
68889;BME280;55930;47.412;8.790;2024-03-08T13:23:21;93624.81;;;19.66;43.03
68889;BME280;55930;47.412;8.790;2024-03-08T13:26:42;93628.91;;;19.06;43.96
68889;BME280;55930;47.412;8.790;2024-03-08T13:30:03;93622.19;;;18.11;45.58
68889;BME280;55930;47.412;8.790;2024-03-08T13:33:24;93615.94;;;17.80;46.58
68889;BME280;55930;47.412;8.790;2024-03-08T13:36:45;93615.13;;;18.00;45.44
68889;BME280;55930;47.412;8.790;2024-03-08T13:40:07;93613.00;;;15.85;50.69
68889;BME280;55930;47.412;8.790;2024-03-08T13:43:30;93616.94;;;15.26;53.25
68889;BME280;55930;47.412;8.790;2024-03-08T13:46:54;93607.38;;;14.85;55.93
68889;BME280;55930;47.412;8.790;2024-03-08T13:50:18;93605.22;;;16.21;54.41
68889;BME280;55930;47.412;8.790;2024-03-08T13:53:41;93586.56;;;17.74;47.16
68889;BME280;55930;47.412;8.790;2024-03-08T13:57:02;93581.66;;;17.65;47.88
68889;BME280;55930;47.412;8.790;2024-03-08T14:00:27;93577.03;;;18.02;46.59
68889;BME280;55930;47.412;8.790;2024-03-08T14:03:53;93575.88;;;17.82;45.85
68889;BME280;55930;47.412;8.790;2024-03-08T14:07:13;93570.69;;;17.27;48.91
68889;BME280;55930;47.412;8.790;2024-03-08T14:10:34;93566.63;;;17.34;47.22
68889;BME280;55930;47.412;8.790;2024-03-08T14:13:55;93559.22;;;16.98;48.49
68889;BME280;55930;47.412;8.790;2024-03-08T14:17:15;93561.38;;;17.00;48.81
68889;BME280;55930;47.412;8.790;2024-03-08T14:20:40;93552.41;;;16.22;50.12
68889;BME280;55930;47.412;8.790;2024-03-08T14:24:02;93547.75;;;16.35;50.38
68889;BME280;55930;47.412;8.790;2024-03-08T14:27:24;93545.63;;;15.87;50.67
68889;BME280;55930;47.412;8.790;2024-03-08T14:30:49;93532.97;;;15.21;52.34
68889;BME280;55930;47.412;8.790;2024-03-08T14:34:10;93534.88;;;12.83;56.31
68889;BME280;55930;47.412;8.790;2024-03-08T14:37:30;93538.41;;;12.67;59.28
68889;BME280;55930;47.412;8.790;2024-03-08T14:40:51;93528.19;;;13.00;61.15
68889;BME280;55930;47.412;8.790;2024-03-08T14:44:13;93522.66;;;13.85;59.36
68889;BME280;55930;47.412;8.790;2024-03-08T14:47:36;93514.38;;;14.07;56.56
68889;BME280;55930;47.412;8.790;2024-03-08T14:50:58;93513.50;;;13.61;56.48
68889;BME280;55930;47.412;8.790;2024-03-08T14:54:19;93524.16;;;11.93;63.95
68889;BME280;55930;47.412;8.790;2024-03-08T14:57:43;93521.59;;;11.76;65.90
68889;BME280;55930;47.412;8.790;2024-03-08T15:01:07;93538.84;;;9.75;76.02
68889;BME280;55930;47.412;8.790;2024-03-08T15:04:27;93530.84;;;9.52;94.00
68889;BME280;55930;47.412;8.790;2024-03-08T15:07:48;93523.34;;;10.49;86.33
68889;BME280;55930;47.412;8.790;2024-03-08T15:11:09;93536.06;;;9.30;100.00
68889;BME280;55930;47.412;8.790;2024-03-08T15:14:30;93516.97;;;9.91;100.00
68889;BME280;55930;47.412;8.790;2024-03-08T15:17:50;93518.97;;;10.24;100.00
68889;BME280;55930;47.412;8.790;2024-03-08T15:21:12;93509.34;;;10.21;100.00
68889;BME280;55930;47.412;8.790;2024-03-08T15:24:33;93500.66;;;10.31;100.00
68889;BME280;55930;47.412;8.790;2024-03-08T15:27:54;93499.81;;;9.58;100.00
68889;BME280;55930;47.412;8.790;2024-03-08T15:31:18;93497.41;;;9.49;100.00
68889;BME280;55930;47.412;8.790;2024-03-08T15:34:43;93497.84;;;8.94;100.00
68889;BME280;55930;47.412;8.790;2024-03-08T15:38:04;93490.69;;;9.65;100.00
68889;BME280;55930;47.412;8.790;2024-03-08T15:41:24;93480.22;;;9.28;100.00
68889;BME280;55930;47.412;8.790;2024-03-08T15:44:46;93480.53;;;9.41;100.00
68889;BME280;55930;47.412;8.790;2024-03-08T15:48:09;93473.25;;;9.25;100.00
68889;BME280;55930;47.412;8.790;2024-03-08T15:51:35;93472.50;;;8.34;100.00
68889;BME280;55930;47.412;8.790;2024-03-08T15:54:56;93472.06;;;7.84;100.00
68889;BME280;55930;47.412;8.790;2024-03-08T15:58:17;93476.06;;;7.74;100.00
68889;BME280;55930;47.412;8.790;2024-03-08T16:01:37;93477.56;;;8.06;100.00
68889;BME280;55930;47.412;8.790;2024-03-08T16:04:58;93475.66;;;7.81;100.00
68889;BME280;55930;47.412;8.790;2024-03-08T16:08:18;93478.19;;;7.69;100.00
68889;BME280;55930;47.412;8.790;2024-03-08T16:11:40;93483.13;;;7.16;100.00
68889;BME280;55930;47.412;8.790;2024-03-08T16:15:05;93484.91;;;7.24;100.00
68889;BME280;55930;47.412;8.790;2024-03-08T16:18:28;93486.34;;;7.05;100.00
68889;BME280;55930;47.412;8.790;2024-03-08T16:21:51;93493.72;;;6.81;100.00
68889;BME280;55930;47.412;8.790;2024-03-08T16:25:12;93488.94;;;6.65;100.00
68889;BME280;55930;47.412;8.790;2024-03-08T16:28:33;93473.91;;;6.50;100.00
68889;BME280;55930;47.412;8.790;2024-03-08T16:31:58;93479.38;;;6.32;100.00
68889;BME280;55930;47.412;8.790;2024-03-08T16:35:19;93482.13;;;6.38;100.00
68889;BME280;55930;47.412;8.790;2024-03-08T16:38:39;93487.50;;;6.14;100.00
68889;BME280;55930;47.412;8.790;2024-03-08T16:42:03;93478.59;;;6.11;100.00
68889;BME280;55930;47.412;8.790;2024-03-08T16:45:27;93482.84;;;5.80;100.00
68889;BME280;55930;47.412;8.790;2024-03-08T16:48:50;93482.84;;;5.80;100.00
68889;BME280;55930;47.412;8.790;2024-03-08T16:52:10;93483.75;;;5.76;100.00
68889;BME280;55930;47.412;8.790;2024-03-08T16:55:30;93479.56;;;5.55;100.00
68889;BME280;55930;47.412;8.790;2024-03-08T16:58:51;93489.06;;;5.38;100.00
68889;BME280;55930;47.412;8.790;2024-03-08T17:02:14;93486.69;;;5.25;100.00
68889;BME280;55930;47.412;8.790;2024-03-08T17:05:34;93501.13;;;5.06;100.00
68889;BME280;55930;47.412;8.790;2024-03-08T17:08:54;93508.22;;;5.15;100.00
68889;BME280;55930;47.412;8.790;2024-03-08T17:12:15;93513.09;;;5.07;100.00
68889;BME280;55930;47.412;8.790;2024-03-08T17:15:39;93517.31;;;5.05;100.00
68889;BME280;55930;47.412;8.790;2024-03-08T17:19:01;93525.44;;;4.92;100.00
68889;BME280;55930;47.412;8.790;2024-03-08T17:22:22;93521.25;;;4.85;100.00
68889;BME280;55930;47.412;8.790;2024-03-08T17:25:44;93524.75;;;4.82;100.00
68889;BME280;55930;47.412;8.790;2024-03-08T17:29:06;93538.22;;;4.75;100.00
68889;BME280;55930;47.412;8.790;2024-03-08T17:32:27;93543.94;;;4.65;100.00
68889;BME280;55930;47.412;8.790;2024-03-08T17:35:48;93545.28;;;4.60;100.00
68889;BME280;55930;47.412;8.790;2024-03-08T17:39:08;93545.94;;;4.46;100.00
68889;BME280;55930;47.412;8.790;2024-03-08T17:42:38;93552.47;;;4.50;100.00
68889;BME280;55930;47.412;8.790;2024-03-08T17:45:58;93546.66;;;4.46;100.00
68889;BME280;55930;47.412;8.790;2024-03-08T17:49:19;93554.06;;;4.48;100.00
68889;BME280;55930;47.412;8.790;2024-03-08T17:52:43;93555.16;;;4.32;100.00